createdAt,value
2023-04-27T00:00:29.544Z,101399.72
2023-04-27T00:02:59.176Z,101403.25
2023-04-27T00:05:31.311Z,101403.00
2023-04-27T00:08:00.713Z,101392.09
2023-04-27T00:10:30.077Z,101398.31
2023-04-27T00:12:59.461Z,101400.59
2023-04-27T00:15:28.785Z,101403.88
2023-04-27T00:17:58.632Z,101398.53
2023-04-27T00:20:28.559Z,101400.19
2023-04-27T00:23:00.492Z,101400.19
2023-04-27T00:25:29.827Z,101399.16
2023-04-27T00:27:59.275Z,101404.31
2023-04-27T00:30:28.581Z,101393.59
2023-04-27T00:32:58.063Z,101392.56
2023-04-27T00:35:27.621Z,101389.69
2023-04-27T00:37:57.088Z,101396.69
2023-04-27T00:40:29.139Z,101392.56
2023-04-27T00:42:58.470Z,101391.13
2023-04-27T00:45:27.808Z,101393.63
2023-04-27T00:47:57.965Z,101396.09
2023-04-27T00:50:31.470Z,101397.97
2023-04-27T00:53:01.624Z,101390.53
2023-04-27T00:55:33.559Z,101390.16
2023-04-27T00:58:03.012Z,101387.88
2023-04-27T01:00:32.484Z,101396.94
2023-04-27T01:03:02.943Z,101391.59
2023-04-27T01:05:33.159Z,101385.81
2023-04-27T01:08:03.306Z,101391.97
2023-04-27T01:10:35.525Z,101394.47
2023-04-27T01:13:04.823Z,101399.00
2023-04-27T01:15:34.201Z,101395.69
2023-04-27T01:18:04.728Z,101393.84
2023-04-27T01:20:34.530Z,101398.59
2023-04-27T01:23:03.841Z,101396.94
2023-04-27T01:25:35.791Z,101396.13
2023-04-27T01:28:05.487Z,101399.59
2023-04-27T01:30:34.819Z,101404.75
2023-04-27T01:33:04.269Z,101409.50
2023-04-27T01:35:33.688Z,101406.00
2023-04-27T01:38:03.312Z,101412.56
2023-04-27T01:40:35.333Z,101415.25
2023-04-27T01:43:05.060Z,101419.16
2023-04-27T01:45:34.492Z,101417.13
2023-04-27T01:48:03.883Z,101419.78
2023-04-27T01:50:33.210Z,101424.09
2023-04-27T01:53:03.560Z,101429.44
2023-04-27T01:55:35.480Z,101421.63
2023-04-27T01:58:04.800Z,101431.09
2023-04-27T02:00:34.128Z,101432.94
2023-04-27T02:03:03.585Z,101434.31
2023-04-27T02:05:33.248Z,101442.56
2023-04-27T02:08:02.730Z,101442.56
2023-04-27T02:10:34.752Z,101444.41
2023-04-27T02:13:04.163Z,101443.75
2023-04-27T02:15:33.773Z,101450.97
2023-04-27T02:18:03.546Z,101449.72
2023-04-27T02:20:33.170Z,101460.81
2023-04-27T02:23:02.532Z,101456.50
2023-04-27T02:25:32.039Z,101459.19
2023-04-27T02:28:04.196Z,101467.63
2023-04-27T02:30:34.443Z,101466.81
2023-04-27T02:33:03.925Z,101459.38
2023-04-27T02:35:34.698Z,101459.16
2023-04-27T02:38:04.061Z,101466.59
2023-04-27T02:40:33.432Z,101462.25
2023-04-27T02:43:05.399Z,101460.81
2023-04-27T02:45:34.698Z,101465.31
2023-04-27T02:48:04.256Z,101469.03
2023-04-27T02:50:33.595Z,101466.34
2023-04-27T02:53:02.930Z,101454.38
2023-04-27T02:55:33.527Z,101454.19
2023-04-27T02:58:06.002Z,101457.88
2023-04-27T03:00:35.831Z,101461.34
2023-04-27T03:03:05.213Z,101456.66
2023-04-27T03:05:34.736Z,101470.59
2023-04-27T03:08:04.070Z,101466.88
2023-04-27T03:10:33.487Z,101465.47
2023-04-27T03:13:06.249Z,101458.25
2023-04-27T03:15:35.763Z,101459.31
2023-04-27T03:18:05.151Z,101459.94
2023-04-27T03:20:34.772Z,101467.94
2023-04-27T03:23:04.073Z,101473.28
2023-04-27T03:25:34.027Z,101467.16
2023-04-27T03:28:06.814Z,101472.72
2023-04-27T03:30:36.106Z,101474.09
2023-04-27T03:33:05.929Z,101472.06
2023-04-27T03:35:35.293Z,101470.63
2023-04-27T03:38:04.603Z,101474.75
2023-04-27T03:40:33.929Z,101465.06
2023-04-27T03:43:06.472Z,101474.28
2023-04-27T03:45:36.030Z,101473.28
2023-04-27T03:48:05.539Z,101474.75
2023-04-27T03:50:34.967Z,101474.75
2023-04-27T03:53:04.521Z,101474.75
2023-04-27T03:55:33.940Z,101477.84
2023-04-27T03:58:06.335Z,101476.78
2023-04-27T04:00:36.090Z,101477.00
2023-04-27T04:03:05.693Z,101485.59
2023-04-27T04:05:35.517Z,101485.97
2023-04-27T04:08:05.022Z,101480.63
2023-04-27T04:10:34.395Z,101481.28
2023-04-27T04:13:06.306Z,101489.66
2023-04-27T04:15:35.751Z,101481.84
2023-04-27T04:18:05.131Z,101484.50
2023-04-27T04:20:34.456Z,101489.22
2023-04-27T04:23:03.806Z,101488.00
2023-04-27T04:25:33.226Z,101496.19
2023-04-27T04:28:02.537Z,101493.53
2023-04-27T04:30:34.672Z,101494.38
2023-04-27T04:33:04.085Z,101495.81
2023-04-27T04:35:33.487Z,101501.72
2023-04-27T04:38:03.097Z,101501.69
2023-04-27T04:40:32.461Z,101500.28
2023-04-27T04:43:01.762Z,101497.84
2023-04-27T04:45:33.689Z,101502.34
2023-04-27T04:48:04.554Z,101502.75
2023-04-27T04:50:34.269Z,101500.84
2023-04-27T04:53:03.596Z,101518.38
2023-04-27T04:55:33.012Z,101517.28
2023-04-27T04:58:03.877Z,101513.47
2023-04-27T05:00:35.766Z,101516.88
2023-04-27T05:03:07.221Z,101523.84
2023-04-27T05:05:36.615Z,101526.50
2023-04-27T05:08:06.221Z,101517.28
2023-04-27T05:10:35.564Z,101523.63
2023-04-27T05:13:07.087Z,101524.03
2023-04-27T05:15:40.039Z,101514.19
2023-04-27T05:18:09.374Z,101522.94
2023-04-27T05:20:39.020Z,101516.94
2023-04-27T05:23:08.390Z,101524.41
2023-04-27T05:25:41.933Z,101524.81
2023-04-27T05:28:11.861Z,101527.06
2023-04-27T05:30:43.735Z,101541.25
2023-04-27T05:33:13.102Z,101538.19
2023-04-27T05:35:42.428Z,101536.94
2023-04-27T05:38:11.789Z,101537.19
2023-04-27T05:40:41.174Z,101533.78
2023-04-27T05:43:10.674Z,101537.19
2023-04-27T05:45:44.489Z,101532.38
2023-04-27T05:48:14.283Z,101538.41
2023-04-27T05:50:46.192Z,101537.19
2023-04-27T05:53:15.568Z,101540.53
2023-04-27T05:55:45.643Z,101535.19
2023-04-27T05:58:14.958Z,101541.88
2023-04-27T06:00:47.113Z,101543.16
2023-04-27T06:03:16.593Z,101536.78
2023-04-27T06:05:46.021Z,101547.47
2023-04-27T06:08:15.506Z,101547.03
2023-04-27T06:10:44.811Z,101547.97
2023-04-27T06:13:14.122Z,101547.59
2023-04-27T06:15:43.479Z,101552.47
2023-04-27T06:18:15.538Z,101554.59
2023-04-27T06:20:44.951Z,101556.53
2023-04-27T06:23:14.264Z,101558.56
2023-04-27T06:25:43.612Z,101563.41
2023-04-27T06:28:12.929Z,101560.06
2023-04-27T06:30:42.230Z,101563.19
2023-04-27T06:33:11.991Z,101557.03
2023-04-27T06:35:46.490Z,101556.66
2023-04-27T06:38:16.974Z,101562.78
2023-04-27T06:40:46.361Z,101556.03
2023-04-27T06:43:15.659Z,101561.56
2023-04-27T06:45:44.970Z,101556.66
2023-04-27T06:48:14.426Z,101553.00
2023-04-27T06:50:46.547Z,101562.84
2023-04-27T06:53:17.433Z,101561.25
2023-04-27T06:55:48.383Z,101563.53
2023-04-27T06:58:18.053Z,101563.31
2023-04-27T07:00:47.389Z,101565.41
2023-04-27T07:03:16.922Z,101563.81
2023-04-27T07:05:49.230Z,101566.25
2023-04-27T07:08:18.536Z,101567.94
2023-04-27T07:10:47.845Z,101566.94
2023-04-27T07:13:17.346Z,101569.66
2023-04-27T07:15:46.693Z,101566.91
2023-04-27T07:18:19.081Z,101564.06
2023-04-27T07:20:51.288Z,101564.72
2023-04-27T07:23:20.726Z,101574.59
2023-04-27T07:25:50.046Z,101573.81
2023-04-27T07:28:19.415Z,101573.66
2023-04-27T07:30:48.892Z,101572.13
2023-04-27T07:33:18.460Z,101583.03
2023-04-27T07:35:47.824Z,101584.97
2023-04-27T07:38:20.115Z,101587.63
2023-04-27T07:40:49.912Z,101595.22
2023-04-27T07:43:19.271Z,101595.72
2023-04-27T07:45:49.816Z,101596.59
2023-04-27T07:48:19.247Z,101587.53
2023-04-27T07:50:48.799Z,101592.06
2023-04-27T07:53:20.980Z,101584.25
2023-04-27T07:55:50.261Z,101589.00
2023-04-27T07:58:19.941Z,101592.31
2023-04-27T08:00:49.404Z,101595.81
2023-04-27T08:03:19.190Z,101589.44
2023-04-27T08:05:49.133Z,101588.66
2023-04-27T08:08:21.860Z,101586.16
2023-04-27T08:10:51.275Z,101591.31
2023-04-27T08:13:20.586Z,101590.69
2023-04-27T08:15:49.974Z,101597.47
2023-04-27T08:18:19.907Z,101595.66
2023-04-27T08:20:49.187Z,101587.84
2023-04-27T08:23:21.147Z,101593.78
2023-04-27T08:25:50.686Z,101588.44
2023-04-27T08:28:19.973Z,101594.22
2023-04-27T08:30:49.294Z,101593.00
2023-04-27T08:33:18.637Z,101595.66
2023-04-27T08:35:47.936Z,101586.59
2023-04-27T08:38:17.275Z,101588.22
2023-04-27T08:40:49.220Z,101581.03
2023-04-27T08:43:19.040Z,101579.78
2023-04-27T08:45:51.946Z,101577.31
2023-04-27T08:48:22.281Z,101572.09
2023-04-27T08:50:53.379Z,101570.28
2023-04-27T08:53:23.557Z,101569.06
2023-04-27T08:55:56.865Z,101571.13
2023-04-27T08:58:39.676Z,101580.00
2023-04-27T09:01:09.811Z,101571.09
2023-04-27T09:03:40.145Z,101574.19
2023-04-27T09:06:10.940Z,101574.19
2023-04-27T09:08:47.609Z,101571.91
2023-04-27T09:11:31.773Z,101573.78
2023-04-27T09:14:03.534Z,101576.59
2023-04-27T09:16:33.794Z,101573.16
2023-04-27T09:19:03.348Z,101575.34
2023-04-27T09:21:33.949Z,101571.44
2023-04-27T09:24:13.424Z,101559.09
2023-04-27T09:26:52.513Z,101565.69
2023-04-27T09:29:21.892Z,101565.66
2023-04-27T09:31:51.262Z,101561.44
2023-04-27T09:34:20.809Z,101559.63
2023-04-27T09:36:50.291Z,101561.44
2023-04-27T09:39:20.276Z,101565.19
2023-04-27T09:41:52.981Z,101563.31
2023-04-27T09:44:23.575Z,101559.63
2023-04-27T09:46:54.421Z,101548.88
2023-04-27T09:49:25.508Z,101552.69
2023-04-27T09:51:55.992Z,101550.72
2023-04-27T09:54:29.244Z,101551.81
2023-04-27T09:57:11.629Z,101550.91
2023-04-27T10:00:11.298Z,101548.09
2023-04-27T10:02:53.183Z,101556.63
2023-04-27T10:05:37.417Z,101558.16
2023-04-27T10:08:07.842Z,101557.13
2023-04-27T10:10:45.652Z,101532.97
2023-04-27T10:13:24.425Z,101550.16
2023-04-27T10:15:54.020Z,101544.31
2023-04-27T10:18:31.603Z,101535.66
2023-04-27T10:21:12.717Z,101544.56
2023-04-27T10:23:48.937Z,101539.13
2023-04-27T10:26:25.160Z,101536.09
2023-04-27T10:29:09.204Z,101549.50
2023-04-27T10:31:39.548Z,101549.41
2023-04-27T10:34:10.494Z,101550.78
2023-04-27T10:36:41.178Z,101552.13
2023-04-27T10:39:18.811Z,101538.69
2023-04-27T10:41:56.299Z,101552.06
2023-04-27T10:44:31.892Z,101543.31
2023-04-27T10:47:03.212Z,101542.84
2023-04-27T10:49:33.364Z,101546.44
2023-04-27T10:52:05.197Z,101549.72
2023-04-27T10:54:36.214Z,101554.16
2023-04-27T10:57:07.497Z,101552.75
2023-04-27T10:59:52.470Z,101549.69
2023-04-27T11:02:29.802Z,101542.16
2023-04-27T11:04:59.444Z,101543.41
2023-04-27T11:07:29.986Z,101535.94
2023-04-27T11:09:59.302Z,101548.06
2023-04-27T11:12:28.874Z,101545.09
2023-04-27T11:15:03.126Z,101532.47
2023-04-27T11:17:32.572Z,101540.81
2023-04-27T11:20:01.975Z,101543.16
2023-04-27T11:22:31.468Z,101524.41
2023-04-27T11:25:01.047Z,101534.69
2023-04-27T11:27:40.267Z,101532.44
2023-04-27T11:30:21.925Z,101531.25
2023-04-27T11:32:52.019Z,101537.16
2023-04-27T11:35:21.573Z,101535.88
2023-04-27T11:38:00.997Z,101532.22
2023-04-27T11:40:31.872Z,101528.03
2023-04-27T11:43:04.185Z,101528.72
2023-04-27T11:45:36.184Z,101524.16
2023-04-27T11:48:05.745Z,101531.09
2023-04-27T11:50:35.128Z,101530.19
2023-04-27T11:53:04.464Z,101529.31
2023-04-27T11:55:41.205Z,101530.03
2023-04-27T11:58:16.786Z,101536.47
2023-04-27T12:00:48.695Z,101544.41
2023-04-27T12:03:18.154Z,101534.59
2023-04-27T12:05:51.693Z,101537.41
2023-04-27T12:08:21.188Z,101538.88
2023-04-27T12:10:51.113Z,101539.84
2023-04-27T12:13:20.609Z,101541.78
2023-04-27T12:15:52.533Z,101534.28
2023-04-27T12:18:21.984Z,101534.22
2023-04-27T12:20:51.362Z,101542.50
2023-04-27T12:23:20.912Z,101536.19
2023-04-27T12:25:50.392Z,101529.38
2023-04-27T12:28:20.538Z,101533.63
2023-04-27T12:30:53.623Z,101526.81
2023-04-27T12:33:23.160Z,101531.88
2023-04-27T12:35:52.606Z,101526.81
2023-04-27T12:38:22.283Z,101531.34
2023-04-27T12:40:51.852Z,101524.19
2023-04-27T12:43:21.206Z,101532.53
2023-04-27T12:45:53.148Z,101527.91
2023-04-27T12:48:23.754Z,101532.00
2023-04-27T12:50:53.148Z,101541.69
2023-04-27T12:53:22.488Z,101534.69
2023-04-27T12:55:51.914Z,101539.00
2023-04-27T12:58:21.742Z,101524.06
2023-04-27T13:00:53.687Z,101530.22
2023-04-27T13:03:23.315Z,101536.81
2023-04-27T13:05:52.846Z,101533.47
2023-04-27T13:08:22.503Z,101538.16
2023-04-27T13:10:51.936Z,101536.75
2023-04-27T13:13:21.313Z,101533.63
2023-04-27T13:15:53.245Z,101536.44
2023-04-27T13:18:22.703Z,101549.22
2023-04-27T13:20:52.070Z,101532.28
2023-04-27T13:23:21.595Z,101536.72
2023-04-27T13:25:50.940Z,101531.22
2023-04-27T13:28:20.257Z,101530.44
2023-04-27T13:30:49.698Z,101543.19
2023-04-27T13:33:23.819Z,101537.56
2023-04-27T13:35:53.467Z,101533.03
2023-04-27T13:38:23.044Z,101534.03
2023-04-27T13:40:52.384Z,101530.69
2023-04-27T13:43:21.782Z,101524.19
2023-04-27T13:45:54.381Z,101526.22
2023-04-27T13:48:26.572Z,101532.31
2023-04-27T13:50:56.558Z,101528.34
2023-04-27T13:53:27.760Z,101524.84
2023-04-27T13:55:57.609Z,101519.41
2023-04-27T13:58:27.757Z,101533.56
2023-04-27T14:00:57.402Z,101522.44
2023-04-27T14:03:29.840Z,101526.41
2023-04-27T14:05:59.445Z,101523.13
2023-04-27T14:08:28.898Z,101521.00
2023-04-27T14:10:58.717Z,101528.38
2023-04-27T14:13:28.110Z,101522.00
2023-04-27T14:15:57.468Z,101514.44
2023-04-27T14:18:32.586Z,101517.50
2023-04-27T14:21:03.226Z,101514.16
2023-04-27T14:23:33.482Z,101514.03
2023-04-27T14:26:03.301Z,101511.22
2023-04-27T14:28:32.670Z,101501.63
2023-04-27T14:31:04.192Z,101503.66
2023-04-27T14:33:36.168Z,101506.09
2023-04-27T14:36:05.563Z,101511.22
2023-04-27T14:38:34.944Z,101507.16
2023-04-27T14:41:04.368Z,101503.44
2023-04-27T14:43:33.780Z,101508.91
2023-04-27T14:46:12.482Z,101502.56
2023-04-27T14:48:52.816Z,101492.97
2023-04-27T14:51:22.943Z,101499.31
2023-04-27T14:53:52.487Z,101493.84
2023-04-27T14:56:23.234Z,101496.72
2023-04-27T14:58:52.582Z,101492.19
2023-04-27T15:01:21.948Z,101500.59
2023-04-27T15:03:54.488Z,101496.72
2023-04-27T15:06:26.188Z,101488.16
2023-04-27T15:08:55.774Z,101496.38
2023-04-27T15:11:25.160Z,101487.28
2023-04-27T15:13:54.533Z,101489.13
2023-04-27T15:16:23.902Z,101495.34
2023-04-27T15:18:55.805Z,101496.28
2023-04-27T15:21:25.220Z,101497.13
2023-04-27T15:23:54.547Z,101491.03
2023-04-27T15:26:23.933Z,101482.84
2023-04-27T15:28:53.246Z,101495.59
2023-04-27T15:31:22.686Z,101495.25
2023-04-27T15:33:53.856Z,101489.84
2023-04-27T15:36:26.863Z,101492.06
2023-04-27T15:38:56.619Z,101483.91
2023-04-27T15:41:25.997Z,101477.53
2023-04-27T15:43:55.425Z,101479.75
2023-04-27T15:46:24.754Z,101480.59
2023-04-27T15:48:54.114Z,101484.13
2023-04-27T15:51:26.800Z,101484.13
2023-04-27T15:53:56.155Z,101475.94
2023-04-27T15:56:29.889Z,101465.06
2023-04-27T15:59:03.877Z,101466.38
2023-04-27T16:01:33.376Z,101461.44
2023-04-27T16:04:03.024Z,101462.72
2023-04-27T16:06:37.807Z,101455.81
2023-04-27T16:09:10.418Z,101465.31
2023-04-27T16:11:40.047Z,101462.50
2023-04-27T16:14:09.384Z,101454.41
2023-04-27T16:16:38.895Z,101466.69
2023-04-27T16:19:08.945Z,101464.22
2023-04-27T16:21:40.872Z,101448.78
2023-04-27T16:24:10.911Z,101457.81
2023-04-27T16:26:40.273Z,101447.84
2023-04-27T16:29:09.576Z,101450.31
2023-04-27T16:31:38.994Z,101448.66
2023-04-27T16:34:08.359Z,101451.25
2023-04-27T16:36:38.773Z,101452.25
2023-04-27T16:39:10.878Z,101460.22
2023-04-27T16:41:40.185Z,101455.94
2023-04-27T16:44:09.516Z,101450.75
2023-04-27T16:46:38.880Z,101456.50
2023-04-27T16:49:08.398Z,101453.31
2023-04-27T16:51:37.812Z,101449.47
2023-04-27T16:54:10.608Z,101445.50
2023-04-27T16:56:40.086Z,101455.22
2023-04-27T16:59:12.313Z,101457.81
2023-04-27T17:01:42.180Z,101457.06
2023-04-27T17:04:11.655Z,101443.72
2023-04-27T17:06:42.344Z,101451.69
2023-04-27T17:09:15.314Z,101457.66
2023-04-27T17:11:44.964Z,101468.31
2023-04-27T17:14:14.311Z,101455.06
2023-04-27T17:16:43.737Z,101459.53
2023-04-27T17:19:13.647Z,101471.47
2023-04-27T17:21:43.151Z,101460.16
2023-04-27T17:24:15.018Z,101468.19
2023-04-27T17:26:48.411Z,101468.53
2023-04-27T17:29:18.953Z,101463.03
2023-04-27T17:31:49.296Z,101477.78
2023-04-27T17:34:18.808Z,101467.00
2023-04-27T17:36:48.809Z,101469.03
2023-04-27T17:39:22.694Z,101466.34
2023-04-27T17:41:52.048Z,101463.09
2023-04-27T17:44:21.598Z,101465.16
2023-04-27T17:46:52.534Z,101460.69
2023-04-27T17:49:22.190Z,101462.47
2023-04-27T17:51:51.868Z,101453.91
2023-04-27T17:54:23.764Z,101452.47
2023-04-27T17:56:53.065Z,101446.88
2023-04-27T17:59:22.412Z,101448.63
2023-04-27T18:01:51.750Z,101451.69
2023-04-27T18:04:21.877Z,101445.94
2023-04-27T18:06:51.455Z,101451.56
2023-04-27T18:09:23.669Z,101452.47
2023-04-27T18:11:52.979Z,101445.94
2023-04-27T18:14:22.320Z,101445.94
2023-04-27T18:16:51.812Z,101445.09
2023-04-27T18:19:21.759Z,101450.84
2023-04-27T18:21:51.180Z,101458.47
2023-04-27T18:24:23.047Z,101455.66
2023-04-27T18:26:52.409Z,101458.13
2023-04-27T18:29:21.817Z,101460.22
2023-04-27T18:31:51.648Z,101469.84
2023-04-27T18:34:21.034Z,101466.00
2023-04-27T18:36:52.064Z,101462.84
2023-04-27T18:39:24.370Z,101455.81
2023-04-27T18:41:53.743Z,101452.06
2023-04-27T18:44:23.061Z,101464.13
2023-04-27T18:46:52.394Z,101466.59
2023-04-27T18:49:21.898Z,101457.19
2023-04-27T18:51:51.210Z,101464.06
2023-04-27T18:54:20.655Z,101470.53
2023-04-27T18:56:53.758Z,101472.19
2023-04-27T18:59:23.192Z,101465.72
2023-04-27T19:01:52.780Z,101463.84
2023-04-27T19:04:22.238Z,101470.75
2023-04-27T19:06:52.165Z,101474.19
2023-04-27T19:09:21.698Z,101471.47
2023-04-27T19:12:02.345Z,101474.78
2023-04-27T19:14:33.569Z,101481.13
2023-04-27T19:17:04.989Z,101483.59
2023-04-27T19:19:34.494Z,101479.47
2023-04-27T19:22:05.496Z,101484.59
2023-04-27T19:24:34.979Z,101480.94
2023-04-27T19:27:08.298Z,101491.97
2023-04-27T19:29:51.924Z,101485.16
2023-04-27T19:32:22.495Z,101488.94
2023-04-27T19:34:51.916Z,101475.78
2023-04-27T19:37:21.807Z,101492.78
2023-04-27T19:39:51.493Z,101479.72
2023-04-27T19:42:24.934Z,101479.72
2023-04-27T19:44:55.842Z,101483.44
2023-04-27T19:47:25.315Z,101474.44
2023-04-27T19:49:54.681Z,101477.66
2023-04-27T19:52:26.035Z,101473.25
2023-04-27T19:54:55.893Z,101467.38
2023-04-27T19:57:28.000Z,101472.47
2023-04-27T19:59:57.341Z,101470.22
2023-04-27T20:02:26.745Z,101474.44
2023-04-27T20:04:56.658Z,101474.06
2023-04-27T20:07:26.297Z,101477.09
2023-04-27T20:09:55.668Z,101478.97
2023-04-27T20:12:44.150Z,101477.78
2023-04-27T20:15:16.951Z,101464.66
2023-04-27T20:17:46.294Z,101471.94
2023-04-27T20:20:15.639Z,101476.38
2023-04-27T20:22:45.024Z,101468.75
2023-04-27T20:25:14.860Z,101474.94
2023-04-27T20:27:46.898Z,101468.66
2023-04-27T20:30:16.455Z,101476.47
2023-04-27T20:32:46.846Z,101473.28
2023-04-27T20:35:16.188Z,101475.38
2023-04-27T20:37:46.190Z,101469.59
2023-04-27T20:40:17.854Z,101473.03
2023-04-27T20:42:49.934Z,101475.50
2023-04-27T20:45:19.946Z,101469.41
2023-04-27T20:47:49.508Z,101465.88
2023-04-27T20:50:18.892Z,101461.91
2023-04-27T20:52:48.207Z,101471.34
2023-04-27T20:55:17.692Z,101466.41
2023-04-27T20:57:47.010Z,101461.78
2023-04-27T21:00:20.409Z,101462.22
2023-04-27T21:02:49.861Z,101471.63
2023-04-27T21:05:19.373Z,101475.41
2023-04-27T21:07:48.719Z,101468.47
2023-04-27T21:10:18.129Z,101468.25
2023-04-27T21:12:47.473Z,101461.91
2023-04-27T21:15:19.436Z,101466.22
2023-04-27T21:17:48.810Z,101459.13
2023-04-27T21:20:20.962Z,101469.91
2023-04-27T21:22:50.287Z,101468.41
2023-04-27T21:25:20.251Z,101465.13
2023-04-27T21:27:51.192Z,101472.00
2023-04-27T21:30:23.421Z,101463.56
2023-04-27T21:32:52.808Z,101461.72
2023-04-27T21:35:22.678Z,101454.41
2023-04-27T21:37:52.011Z,101452.66
2023-04-27T21:40:21.674Z,101450.81
2023-04-27T21:42:52.701Z,101444.78
2023-04-27T21:45:24.977Z,101438.25
2023-04-27T21:47:54.329Z,101445.50
2023-04-27T21:50:23.779Z,101440.69
2023-04-27T21:55:22.617Z,101440.94
2023-04-27T21:57:51.931Z,101440.94
2023-04-27T22:00:24.065Z,101434.16
2023-04-27T22:02:53.585Z,101436.09
2023-04-27T22:05:23.825Z,101428.25
2023-04-27T22:07:53.706Z,101424.28
2023-04-27T22:10:23.149Z,101433.53
2023-04-27T22:16:13.124Z,101439.59
2023-04-27T22:18:46.760Z,101429.75
2023-04-27T22:21:16.406Z,101417.81
2023-04-27T22:23:49.275Z,101427.31
2023-04-27T22:26:36.793Z,101427.72
2023-04-27T22:29:07.812Z,101423.19
2023-04-27T22:31:40.968Z,101420.91
2023-04-27T22:34:18.463Z,101410.38
2023-04-27T22:37:04.818Z,101414.47
2023-04-27T22:42:26.164Z,101415.22
2023-04-27T22:45:06.927Z,101404.25
2023-04-27T22:47:39.192Z,101410.75
2023-04-27T22:50:09.275Z,101405.75
2023-04-27T22:52:39.006Z,101404.19
2023-04-27T22:55:09.177Z,101402.69
2023-04-27T22:57:38.689Z,101392.69
2023-04-27T23:00:14.110Z,101397.53
2023-04-27T23:02:46.645Z,101396.47
2023-04-27T23:05:16.830Z,101397.94
2023-04-27T23:07:46.634Z,101390.91
2023-04-27T23:10:16.146Z,101400.09
2023-04-27T23:12:46.014Z,101388.38
2023-04-27T23:15:16.630Z,101390.91
2023-04-27T23:17:48.667Z,101380.78
2023-04-27T23:20:28.055Z,101387.81
2023-04-27T23:22:58.664Z,101389.09
2023-04-27T23:25:28.262Z,101383.47
2023-04-27T23:27:57.820Z,101383.59
2023-04-27T23:30:27.385Z,101380.31
2023-04-27T23:32:59.541Z,101373.97
2023-04-27T23:35:31.662Z,101366.56
2023-04-27T23:38:01.344Z,101365.44
2023-04-27T23:40:30.939Z,101371.41
2023-04-27T23:43:00.421Z,101370.22
2023-04-27T23:45:29.869Z,101361.56
2023-04-27T23:48:01.995Z,101364.16
2023-04-27T23:50:31.599Z,101359.41
2023-04-27T23:53:01.332Z,101351.34
2023-04-27T23:55:30.978Z,101354.53
2023-04-27T23:58:00.475Z,101357.22
